createdAt,value
2022-10-31T00:01:27.189Z,10.43
2022-10-31T00:03:57.164Z,10.15
2022-10-31T00:06:27.286Z,9.40
2022-10-31T00:08:56.947Z,10.07
2022-10-31T00:11:27.445Z,11.00
2022-10-31T00:16:23.649Z,11.02
2022-10-31T00:19:01.748Z,12.00
2022-10-31T00:21:29.332Z,11.55
2022-10-31T00:23:56.128Z,12.35
2022-10-31T00:26:23.060Z,17.17
2022-10-31T00:28:52.457Z,11.80
2022-10-31T00:31:19.323Z,13.15
2022-10-31T00:33:46.249Z,13.55
2022-10-31T00:36:19.024Z,12.65
2022-10-31T00:38:46.969Z,14.70
2022-10-31T00:41:15.520Z,13.48
2022-10-31T00:43:43.859Z,13.00
2022-10-31T00:46:14.567Z,11.38
2022-10-31T00:48:41.969Z,10.50
2022-10-31T00:51:09.334Z,10.57
2022-10-31T00:53:36.247Z,9.38
2022-10-31T00:56:03.576Z,11.60
2022-10-31T00:58:32.908Z,6.68
2022-10-31T01:00:59.613Z,8.40
2022-10-31T01:03:32.639Z,8.43
2022-10-31T01:06:04.352Z,9.18
2022-10-31T01:08:31.162Z,7.88
2022-10-31T01:11:06.335Z,7.07
2022-10-31T01:13:33.587Z,8.95
2022-10-31T01:16:01.310Z,8.02
2022-10-31T01:18:29.086Z,11.93
2022-10-31T01:21:08.070Z,13.13
2022-10-31T01:23:35.438Z,11.45
2022-10-31T01:26:14.364Z,10.98
2022-10-31T01:28:55.660Z,7.90
2022-10-31T01:31:25.970Z,7.78
2022-10-31T01:33:53.265Z,8.75
2022-10-31T01:36:25.113Z,7.40
2022-10-31T01:38:54.072Z,9.52
2022-10-31T01:41:24.115Z,8.27
2022-10-31T01:44:00.196Z,9.68
2022-10-31T01:46:41.744Z,11.75
2022-10-31T01:49:19.341Z,8.90
2022-10-31T01:51:50.844Z,10.82
2022-10-31T01:54:24.185Z,11.82
2022-10-31T01:56:55.682Z,11.88
2022-10-31T01:59:25.850Z,12.18
2022-10-31T02:01:53.196Z,12.15
2022-10-31T02:04:21.824Z,11.73
2022-10-31T02:07:03.776Z,10.75
2022-10-31T02:09:32.815Z,13.23
2022-10-31T02:12:00.516Z,13.15
2022-10-31T02:14:31.813Z,14.40
2022-10-31T02:16:59.418Z,11.48
2022-10-31T02:19:41.686Z,13.98
2022-10-31T02:22:31.287Z,16.27
2022-10-31T02:25:15.713Z,14.23
2022-10-31T02:27:52.775Z,15.52
2022-10-31T02:30:31.817Z,16.17
2022-10-31T02:33:25.831Z,12.55
2022-10-31T02:36:35.608Z,14.70
2022-10-31T02:39:20.096Z,15.82
2022-10-31T02:42:09.859Z,15.07
2022-10-31T02:44:40.175Z,14.52
2022-10-31T02:47:15.057Z,19.15
2022-10-31T02:49:49.832Z,16.17
2022-10-31T02:52:23.492Z,18.08
2022-10-31T02:54:51.922Z,21.30
2022-10-31T02:57:24.925Z,18.80
2022-10-31T03:00:00.448Z,22.30
2022-10-31T03:02:58.606Z,24.27
2022-10-31T03:05:34.626Z,19.55
2022-10-31T03:08:12.932Z,18.30
2022-10-31T03:10:55.917Z,17.55
2022-10-31T03:13:49.633Z,17.77
2022-10-31T03:16:22.317Z,18.80
2022-10-31T03:19:11.118Z,15.52
2022-10-31T03:21:46.530Z,18.73
2022-10-31T03:24:16.091Z,13.88
2022-10-31T03:26:48.563Z,14.15
2022-10-31T03:29:20.217Z,12.70
2022-10-31T03:31:58.609Z,13.65
2022-10-31T03:34:25.364Z,13.63
2022-10-31T03:36:56.179Z,17.65
2022-10-31T03:39:24.476Z,16.40
2022-10-31T03:41:57.270Z,13.27
2022-10-31T03:44:25.163Z,14.90
2022-10-31T03:46:51.987Z,11.43
2022-10-31T03:49:18.813Z,13.35
2022-10-31T03:52:18.011Z,14.50
2022-10-31T03:54:47.744Z,14.80
2022-10-31T03:57:33.474Z,17.23
2022-10-31T04:00:12.196Z,15.13
2022-10-31T04:02:43.972Z,15.60
2022-10-31T04:05:14.142Z,15.57
2022-10-31T04:07:46.706Z,19.20
2022-10-31T04:10:16.217Z,13.00
2022-10-31T04:12:50.265Z,13.40
2022-10-31T04:15:17.238Z,11.45
2022-10-31T04:17:46.996Z,14.15
2022-10-31T04:20:17.919Z,10.73
2022-10-31T04:22:44.868Z,14.65
2022-10-31T04:25:11.727Z,11.20
2022-10-31T04:27:41.671Z,11.85
2022-10-31T04:30:09.096Z,10.93
2022-10-31T04:32:35.994Z,11.77
2022-10-31T04:35:02.742Z,12.15
2022-10-31T04:37:29.620Z,11.35
2022-10-31T04:39:56.282Z,14.93
2022-10-31T04:42:25.346Z,14.00
2022-10-31T04:44:52.156Z,15.23
2022-10-31T04:47:19.100Z,10.50
2022-10-31T04:49:45.962Z,14.07
2022-10-31T04:52:13.920Z,14.15
2022-10-31T04:54:40.790Z,11.27
2022-10-31T04:57:07.560Z,12.48
2022-10-31T04:59:34.347Z,14.55
2022-10-31T05:02:01.294Z,15.75
2022-10-31T05:04:28.748Z,13.93
2022-10-31T05:06:55.544Z,13.43
2022-10-31T05:09:22.368Z,13.82
2022-10-31T05:11:49.135Z,9.70
2022-10-31T05:14:18.383Z,11.07
2022-10-31T05:16:47.445Z,13.00
2022-10-31T05:19:16.624Z,12.70
2022-10-31T05:21:43.538Z,12.30
2022-10-31T05:24:10.554Z,11.90
2022-10-31T05:26:39.655Z,10.88
2022-10-31T05:29:06.408Z,11.43
2022-10-31T05:31:36.111Z,11.88
2022-10-31T05:34:02.958Z,10.27
2022-10-31T05:36:33.185Z,12.48
2022-10-31T05:38:59.906Z,10.80
2022-10-31T05:41:28.980Z,12.80
2022-10-31T05:43:58.395Z,10.57
2022-10-31T05:46:25.122Z,10.20
2022-10-31T05:48:51.847Z,12.95
2022-10-31T05:51:19.041Z,11.23
2022-10-31T05:53:47.470Z,11.50
2022-10-31T05:56:14.446Z,12.40
2022-10-31T05:58:41.183Z,13.65
2022-10-31T06:01:08.070Z,13.35
2022-10-31T06:03:37.946Z,16.20
2022-10-31T06:06:04.847Z,14.23
2022-10-31T06:08:31.456Z,15.88
2022-10-31T06:10:58.058Z,12.50
2022-10-31T06:13:25.208Z,15.18
2022-10-31T06:15:51.947Z,14.55
2022-10-31T06:18:18.657Z,17.42
2022-10-31T06:20:45.459Z,19.70
2022-10-31T06:23:12.193Z,18.35
2022-10-31T06:25:40.573Z,15.40
2022-10-31T06:28:07.278Z,11.35
2022-10-31T06:30:34.228Z,12.57
2022-10-31T06:33:05.040Z,13.32
2022-10-31T06:35:35.015Z,15.95
2022-10-31T06:38:01.883Z,14.30
2022-10-31T06:40:28.672Z,20.98
2022-10-31T06:43:02.342Z,13.85
2022-10-31T06:45:29.203Z,13.60
2022-10-31T06:48:16.666Z,22.77
2022-10-31T06:50:43.849Z,12.98
2022-10-31T06:55:38.803Z,34.33
2022-10-31T06:58:05.793Z,17.73
2022-10-31T07:00:33.748Z,18.30
2022-10-31T07:03:03.167Z,39.35
2022-10-31T07:05:31.161Z,43.03
2022-10-31T07:08:03.273Z,35.20
2022-10-31T07:10:35.639Z,19.42
2022-10-31T07:13:07.951Z,35.45
2022-10-31T07:15:36.515Z,22.48
2022-10-31T07:18:05.074Z,17.75
2022-10-31T07:20:32.062Z,16.83
2022-10-31T07:22:58.988Z,33.47
2022-10-31T07:25:26.104Z,16.23
2022-10-31T07:27:52.825Z,14.40
2022-10-31T07:30:19.770Z,14.13
2022-10-31T07:32:51.116Z,16.08
2022-10-31T07:35:29.042Z,18.30
2022-10-31T07:37:56.331Z,13.52
2022-10-31T07:40:24.136Z,21.85
2022-10-31T07:42:52.705Z,25.05
2022-10-31T07:45:21.395Z,13.82
2022-10-31T07:47:50.481Z,14.13
2022-10-31T07:50:19.471Z,15.07
2022-10-31T07:52:46.335Z,16.33
2022-10-31T07:55:16.046Z,20.50
2022-10-31T07:57:43.134Z,13.77
2022-10-31T08:00:16.464Z,15.07
2022-10-31T08:02:43.460Z,19.30
2022-10-31T08:05:15.505Z,15.98
2022-10-31T08:07:42.234Z,15.25
2022-10-31T08:10:09.095Z,13.32
2022-10-31T08:12:35.941Z,17.33
2022-10-31T08:15:03.029Z,13.50
2022-10-31T08:17:30.697Z,26.67
2022-10-31T08:19:57.378Z,13.13
2022-10-31T08:22:27.104Z,19.23
2022-10-31T08:24:53.800Z,14.47
2022-10-31T08:27:20.901Z,21.20
2022-10-31T08:29:48.566Z,13.57
2022-10-31T08:32:15.385Z,7.50
2022-10-31T08:35:03.914Z,8.18
2022-10-31T08:37:30.800Z,8.80
2022-10-31T08:39:57.609Z,11.38
2022-10-31T08:42:24.383Z,8.73
2022-10-31T08:44:51.076Z,11.07
2022-10-31T08:47:20.516Z,8.32
2022-10-31T08:49:47.233Z,10.25
2022-10-31T08:52:17.069Z,9.23
2022-10-31T08:54:43.802Z,10.52
2022-10-31T08:57:12.882Z,11.77
2022-10-31T08:59:39.725Z,13.07
2022-10-31T09:02:06.659Z,19.08
2022-10-31T09:04:33.761Z,9.40
2022-10-31T09:07:20.054Z,14.38
2022-10-31T09:09:49.515Z,10.10
2022-10-31T09:12:16.376Z,10.80
2022-10-31T09:14:43.282Z,13.52
2022-10-31T09:17:10.161Z,12.25
2022-10-31T09:19:37.360Z,10.88
2022-10-31T09:22:04.226Z,11.98
2022-10-31T09:24:33.863Z,11.88
2022-10-31T09:27:01.053Z,11.23
2022-10-31T09:29:30.185Z,12.15
2022-10-31T09:31:58.802Z,10.45
2022-10-31T09:34:28.888Z,10.80
2022-10-31T09:36:56.722Z,14.30
2022-10-31T09:39:24.914Z,15.07
2022-10-31T09:42:16.652Z,15.48
2022-10-31T09:45:08.274Z,16.67
2022-10-31T09:48:06.171Z,17.25
2022-10-31T09:50:59.494Z,19.13
2022-10-31T09:53:47.949Z,15.07
2022-10-31T09:56:21.973Z,16.02
2022-10-31T09:58:55.742Z,19.67
2022-10-31T10:01:44.147Z,28.05
2022-10-31T10:04:41.488Z,17.83
2022-10-31T10:07:47.875Z,16.25
2022-10-31T10:10:52.269Z,18.25
2022-10-31T10:13:40.635Z,15.43
2022-10-31T10:16:44.868Z,16.73
2022-10-31T10:19:56.856Z,15.77
2022-10-31T10:22:38.950Z,15.30
2022-10-31T10:25:11.639Z,14.63
2022-10-31T10:27:46.739Z,14.32
2022-10-31T10:30:21.387Z,13.93
2022-10-31T10:32:55.682Z,19.08
2022-10-31T10:35:22.538Z,14.45
2022-10-31T10:37:55.370Z,17.50
2022-10-31T10:40:27.105Z,12.18
2022-10-31T10:43:26.495Z,12.67
2022-10-31T10:46:30.252Z,12.32
2022-10-31T10:49:02.201Z,12.07
2022-10-31T10:51:57.478Z,16.45
2022-10-31T10:54:45.093Z,11.82
2022-10-31T10:57:43.503Z,11.27
2022-10-31T11:00:33.986Z,14.45
2022-10-31T11:05:53.352Z,10.95
2022-10-31T11:08:28.009Z,14.73
2022-10-31T11:11:04.401Z,12.80
2022-10-31T11:13:32.978Z,18.00
2022-10-31T11:16:12.882Z,10.98
2022-10-31T11:18:45.902Z,14.20
2022-10-31T11:21:39.267Z,12.35
2022-10-31T11:24:09.044Z,13.77
2022-10-31T11:26:38.772Z,14.38
2022-10-31T11:29:09.386Z,13.48
2022-10-31T11:31:36.562Z,14.43
2022-10-31T11:34:07.488Z,13.80
2022-10-31T11:36:40.681Z,13.85
2022-10-31T11:39:20.352Z,16.08
2022-10-31T11:41:51.823Z,15.35
2022-10-31T11:44:42.394Z,14.13
2022-10-31T11:47:17.918Z,17.88
2022-10-31T11:49:50.517Z,18.90
2022-10-31T11:52:29.153Z,18.48
2022-10-31T11:55:04.971Z,17.15
2022-10-31T11:57:46.179Z,16.50
2022-10-31T12:03:27.124Z,16.92
2022-10-31T12:06:14.412Z,20.05
2022-10-31T12:08:43.269Z,17.08
2022-10-31T12:11:10.201Z,16.67
2022-10-31T12:13:57.618Z,18.20
2022-10-31T12:16:43.120Z,17.33
2022-10-31T12:19:34.249Z,14.38
2022-10-31T12:22:28.608Z,14.88
2022-10-31T12:25:11.015Z,15.63
2022-10-31T12:28:00.851Z,14.15
2022-10-31T12:30:55.967Z,16.90
2022-10-31T12:33:41.312Z,12.80
2022-10-31T12:36:27.383Z,10.88
2022-10-31T12:39:35.272Z,15.35
2022-10-31T12:42:24.285Z,17.55
2022-10-31T12:45:03.714Z,15.30
2022-10-31T12:47:56.540Z,13.30
2022-10-31T12:50:42.032Z,13.38
2022-10-31T12:53:15.137Z,15.82
2022-10-31T12:55:57.942Z,14.20
2022-10-31T12:58:29.660Z,11.85
2022-10-31T13:01:22.458Z,15.50
2022-10-31T13:03:52.434Z,9.43
2022-10-31T13:06:30.146Z,12.60
2022-10-31T13:09:04.514Z,13.07
2022-10-31T13:11:36.806Z,12.10
2022-10-31T13:14:44.323Z,13.15
2022-10-31T13:17:37.416Z,11.75
2022-10-31T13:20:21.961Z,15.43
2022-10-31T13:22:55.870Z,17.75
2022-10-31T13:25:33.435Z,17.75
2022-10-31T13:28:07.314Z,16.77
2022-10-31T13:30:39.142Z,13.27
2022-10-31T13:33:12.586Z,14.48
2022-10-31T13:36:16.140Z,16.10
2022-10-31T13:38:53.103Z,15.05
2022-10-31T13:41:50.908Z,16.83
2022-10-31T13:44:32.208Z,14.52
2022-10-31T13:47:22.717Z,17.55
2022-10-31T13:52:27.809Z,14.82
2022-10-31T13:54:58.434Z,20.25
2022-10-31T13:57:40.137Z,16.17
2022-10-31T14:00:27.780Z,13.70
2022-10-31T14:02:59.641Z,15.85
2022-10-31T14:05:32.361Z,18.80
2022-10-31T14:08:05.339Z,16.52
2022-10-31T14:10:38.629Z,14.40
2022-10-31T14:13:32.418Z,20.65
2022-10-31T14:16:08.338Z,17.02
2022-10-31T14:18:39.383Z,21.92
2022-10-31T14:21:24.732Z,19.05
2022-10-31T14:24:02.636Z,15.00
2022-10-31T14:26:29.602Z,15.73
2022-10-31T14:29:01.401Z,14.98
2022-10-31T14:32:26.418Z,14.57
2022-10-31T14:34:58.623Z,15.95
2022-10-31T14:37:47.019Z,16.67
2022-10-31T14:40:28.948Z,17.58
2022-10-31T14:43:27.340Z,16.85
2022-10-31T14:46:19.412Z,14.02
2022-10-31T14:49:13.534Z,13.73
2022-10-31T14:51:45.348Z,13.98
2022-10-31T14:54:31.182Z,16.05
2022-10-31T14:57:06.711Z,18.02
2022-10-31T14:59:37.996Z,16.63
2022-10-31T15:02:46.242Z,18.38
2022-10-31T15:05:18.822Z,17.02
2022-10-31T15:07:57.029Z,20.08
2022-10-31T15:10:34.358Z,20.13
2022-10-31T15:13:12.348Z,21.02
2022-10-31T15:15:41.283Z,19.33
2022-10-31T15:18:23.597Z,18.13
2022-10-31T15:20:51.741Z,22.10
2022-10-31T15:23:47.995Z,18.52
2022-10-31T15:26:19.870Z,22.52
2022-10-31T15:28:48.814Z,17.85
2022-10-31T15:31:21.320Z,20.58
2022-10-31T15:33:52.684Z,17.42
2022-10-31T15:36:40.738Z,16.17
2022-10-31T15:39:16.092Z,17.38
2022-10-31T15:41:58.086Z,19.27
2022-10-31T15:44:33.710Z,15.13
2022-10-31T15:47:14.585Z,18.02
2022-10-31T15:50:06.189Z,14.68
2022-10-31T15:52:57.555Z,14.40
2022-10-31T15:58:48.343Z,17.42
2022-10-31T16:01:27.332Z,16.38
2022-10-31T16:04:24.736Z,21.55
2022-10-31T16:07:23.482Z,27.52
2022-10-31T16:10:05.597Z,21.88
2022-10-31T16:12:45.783Z,17.27
2022-10-31T16:15:16.624Z,15.32
2022-10-31T16:17:46.807Z,20.10
2022-10-31T16:20:29.284Z,17.58
2022-10-31T16:23:04.905Z,22.30
2022-10-31T16:26:26.028Z,17.00
2022-10-31T16:29:05.894Z,21.13
2022-10-31T16:31:44.967Z,27.38
2022-10-31T16:36:47.112Z,17.75
2022-10-31T16:39:18.595Z,19.77
2022-10-31T16:41:57.982Z,20.85
2022-10-31T16:44:28.640Z,18.27
2022-10-31T16:47:35.701Z,20.30
2022-10-31T16:50:13.200Z,18.67
2022-10-31T16:53:12.784Z,18.10
2022-10-31T16:56:00.822Z,16.23
2022-10-31T16:58:36.506Z,19.70
2022-10-31T17:01:07.175Z,15.70
2022-10-31T17:03:36.659Z,22.35
2022-10-31T17:06:04.003Z,21.00
2022-10-31T17:08:31.142Z,18.40
2022-10-31T17:11:02.571Z,18.75
2022-10-31T17:13:32.021Z,21.20
2022-10-31T17:16:01.274Z,21.50
2022-10-31T17:18:28.841Z,20.88
2022-10-31T17:21:02.827Z,23.27
2022-10-31T17:23:32.060Z,22.02
2022-10-31T17:26:10.564Z,22.98
2022-10-31T17:28:44.230Z,22.35
2022-10-31T17:31:23.092Z,24.30
2022-10-31T17:33:51.935Z,21.98
2022-10-31T17:36:23.713Z,23.00
2022-10-31T17:38:53.805Z,19.23
2022-10-31T17:41:23.225Z,24.45
2022-10-31T17:43:56.990Z,28.48
2022-10-31T17:46:29.975Z,32.83
2022-10-31T17:49:01.420Z,28.00
2022-10-31T17:51:28.256Z,27.33
2022-10-31T17:53:56.608Z,23.65
2022-10-31T17:56:23.493Z,22.45
2022-10-31T17:58:50.845Z,26.45
2022-10-31T18:01:19.205Z,26.30
2022-10-31T18:03:49.067Z,27.40
2022-10-31T18:06:17.021Z,23.13
2022-10-31T18:08:44.485Z,23.13
2022-10-31T18:11:14.887Z,19.35
2022-10-31T18:16:15.935Z,20.88
2022-10-31T18:18:42.887Z,23.15
2022-10-31T18:21:12.918Z,20.85
2022-10-31T18:23:41.974Z,23.70
2022-10-31T18:26:14.273Z,23.45
2022-10-31T18:28:44.287Z,22.25
2022-10-31T18:31:11.150Z,26.65
2022-10-31T18:33:39.104Z,18.45
2022-10-31T18:36:13.132Z,20.08
2022-10-31T18:38:46.906Z,20.50
2022-10-31T18:41:15.330Z,19.58
2022-10-31T18:43:42.558Z,21.83
2022-10-31T18:46:13.529Z,18.83
2022-10-31T18:48:42.106Z,19.75
2022-10-31T18:51:11.936Z,22.92
2022-10-31T18:53:39.068Z,24.83
2022-10-31T18:56:11.192Z,25.33
2022-10-31T18:58:38.355Z,23.27
2022-10-31T19:01:13.587Z,22.38
2022-10-31T19:03:43.411Z,28.08
2022-10-31T19:06:13.840Z,33.95
2022-10-31T19:08:40.582Z,44.38
2022-10-31T19:11:13.533Z,39.90
2022-10-31T19:13:46.794Z,34.33
2022-10-31T19:16:22.254Z,31.35
2022-10-31T19:18:49.267Z,30.10
2022-10-31T19:21:18.786Z,28.10
2022-10-31T19:23:46.083Z,26.98
2022-10-31T19:26:15.230Z,25.25
2022-10-31T19:28:49.563Z,27.13
2022-10-31T19:31:21.382Z,27.77
2022-10-31T19:33:48.328Z,28.45
2022-10-31T19:36:28.749Z,27.15
2022-10-31T19:39:01.173Z,24.13
2022-10-31T19:41:32.765Z,26.10
2022-10-31T19:44:00.905Z,25.60
2022-10-31T19:46:48.193Z,29.27
2022-10-31T19:49:20.049Z,28.48
2022-10-31T19:51:46.979Z,29.95
2022-10-31T19:54:13.882Z,37.08
2022-10-31T19:56:43.840Z,31.33
2022-10-31T19:59:10.869Z,34.90
2022-10-31T20:01:40.951Z,30.50
2022-10-31T20:04:08.023Z,29.52
2022-10-31T20:06:38.574Z,25.25
2022-10-31T20:09:11.517Z,27.98
2022-10-31T20:11:39.011Z,29.60
2022-10-31T20:14:06.875Z,28.02
2022-10-31T20:16:35.542Z,26.90
2022-10-31T20:19:03.115Z,30.25
2022-10-31T20:21:38.937Z,38.33
2022-10-31T20:24:08.001Z,29.00
2022-10-31T20:26:35.867Z,32.05
2022-10-31T20:29:08.235Z,33.25
2022-10-31T20:31:40.097Z,31.85
2022-10-31T20:34:09.427Z,28.73
2022-10-31T20:36:36.948Z,30.52
2022-10-31T20:39:06.004Z,30.65
2022-10-31T20:41:32.956Z,25.73
2022-10-31T20:44:06.913Z,23.58
2022-10-31T20:46:40.028Z,26.65
2022-10-31T20:49:12.358Z,22.88
2022-10-31T20:51:45.428Z,23.38
2022-10-31T20:54:21.159Z,28.02
2022-10-31T20:56:49.343Z,20.63
2022-10-31T20:59:28.941Z,31.63
2022-10-31T21:01:57.936Z,29.40
2022-10-31T21:04:34.016Z,30.67
2022-10-31T21:07:05.906Z,31.63
2022-10-31T21:09:38.309Z,31.77
2022-10-31T21:12:07.587Z,25.55
2022-10-31T21:14:34.510Z,23.98
2022-10-31T21:17:03.628Z,26.63
2022-10-31T21:19:37.318Z,29.45
2022-10-31T21:22:09.409Z,27.13
2022-10-31T21:24:36.161Z,30.80
2022-10-31T21:27:07.260Z,30.33
2022-10-31T21:29:36.742Z,37.30
2022-10-31T21:32:03.645Z,34.80
2022-10-31T21:34:30.438Z,31.83
2022-10-31T21:36:57.313Z,31.80
2022-10-31T21:39:24.129Z,34.00
2022-10-31T21:41:50.913Z,30.40
2022-10-31T21:44:17.835Z,28.33
2022-10-31T21:46:47.237Z,34.00
2022-10-31T21:49:14.182Z,31.38
2022-10-31T21:51:44.206Z,34.45
2022-10-31T21:54:30.354Z,33.05
2022-10-31T21:56:58.987Z,28.95
2022-10-31T21:59:28.475Z,38.28
2022-10-31T22:01:58.070Z,37.40
2022-10-31T22:04:28.167Z,28.65
2022-10-31T22:06:55.479Z,37.45
2022-10-31T22:09:23.511Z,39.42
2022-10-31T22:11:50.507Z,46.85
2022-10-31T22:14:17.372Z,42.53
2022-10-31T22:16:44.504Z,37.00
2022-10-31T22:19:13.272Z,30.75
2022-10-31T22:21:46.440Z,28.13
2022-10-31T22:24:14.284Z,36.67
2022-10-31T22:26:43.667Z,44.85
2022-10-31T22:29:13.368Z,46.45
2022-10-31T22:31:41.894Z,48.15
2022-10-31T22:34:09.409Z,44.90
2022-10-31T22:36:37.822Z,51.60
2022-10-31T22:39:05.972Z,86.88
2022-10-31T22:41:35.030Z,61.22
2022-10-31T22:44:05.698Z,34.00
2022-10-31T22:46:35.287Z,35.58
2022-10-31T22:49:06.452Z,25.83
2022-10-31T22:51:38.560Z,24.52
2022-10-31T22:54:07.769Z,20.48
2022-10-31T22:56:35.017Z,19.52
2022-10-31T22:59:02.882Z,20.73
2022-10-31T23:01:33.297Z,18.80
2022-10-31T23:04:01.155Z,20.73
2022-10-31T23:06:32.184Z,22.33
2022-10-31T23:09:01.243Z,22.88
2022-10-31T23:11:35.192Z,26.02
2022-10-31T23:14:14.407Z,22.13
2022-10-31T23:16:45.807Z,25.08
2022-10-31T23:19:24.928Z,29.23
2022-10-31T23:22:04.039Z,26.08
2022-10-31T23:24:39.211Z,26.33
2022-10-31T23:27:17.561Z,24.77
2022-10-31T23:29:49.239Z,34.58
2022-10-31T23:32:27.019Z,35.85
2022-10-31T23:35:02.570Z,30.85
2022-10-31T23:37:31.449Z,32.28
2022-10-31T23:39:58.289Z,35.28
2022-10-31T23:42:26.759Z,28.67
2022-10-31T23:44:53.619Z,28.38
2022-10-31T23:47:21.676Z,34.60
2022-10-31T23:49:49.072Z,30.67
2022-10-31T23:52:16.054Z,28.38
2022-10-31T23:54:43.331Z,28.35
2022-10-31T23:57:12.199Z,29.58
2022-10-31T23:59:39.167Z,31.63
